createdAt,value
2019-05-25T00:01:56.018Z,87.85
2019-05-25T00:04:30.276Z,88.09
2019-05-25T00:07:02.660Z,88.04
2019-05-25T00:09:35.053Z,88.61
2019-05-25T00:12:07.407Z,87.91
2019-05-25T00:14:39.810Z,87.61
2019-05-25T00:17:12.249Z,87.68
2019-05-25T00:19:44.723Z,87.98
2019-05-25T00:22:17.146Z,87.75
2019-05-25T00:24:50.549Z,87.65
2019-05-25T00:27:23.941Z,87.74
2019-05-25T00:29:56.345Z,87.63
2019-05-25T00:32:28.588Z,87.72
2019-05-25T00:35:02.906Z,87.35
2019-05-25T00:37:34.796Z,87.58
2019-05-25T00:40:09.980Z,87.75
2019-05-25T00:42:42.367Z,87.30
2019-05-25T00:45:14.713Z,86.74
2019-05-25T00:47:47.051Z,86.61
2019-05-25T00:50:20.320Z,86.87
2019-05-25T00:52:52.627Z,86.00
2019-05-25T00:55:28.769Z,86.11
2019-05-25T00:58:04.776Z,86.52
2019-05-25T01:00:38.020Z,86.36
2019-05-25T01:03:10.310Z,87.33
2019-05-25T01:05:42.626Z,86.57
2019-05-25T01:08:16.006Z,86.32
2019-05-25T01:10:48.361Z,86.34
2019-05-25T01:13:23.199Z,86.63
2019-05-25T01:15:57.461Z,86.33
2019-05-25T01:18:30.759Z,86.74
2019-05-25T01:21:03.141Z,86.53
2019-05-25T01:23:35.421Z,86.40
2019-05-25T01:26:08.809Z,85.86
2019-05-25T01:28:42.125Z,85.85
2019-05-25T01:31:14.406Z,86.35
2019-05-25T01:33:46.761Z,86.14
2019-05-25T01:36:19.275Z,86.09
2019-05-25T01:38:52.535Z,86.01
2019-05-25T01:41:28.986Z,86.08
2019-05-25T01:44:01.258Z,86.15
2019-05-25T01:46:33.600Z,86.32
2019-05-25T01:49:05.876Z,86.19
2019-05-25T01:51:38.141Z,86.18
2019-05-25T01:54:10.344Z,86.48
2019-05-25T01:56:42.698Z,86.62
2019-05-25T01:59:14.883Z,86.12
2019-05-25T02:01:47.157Z,86.85
2019-05-25T02:04:19.515Z,88.13
2019-05-25T02:06:51.797Z,88.42
2019-05-25T02:09:24.195Z,89.25
2019-05-25T02:11:56.497Z,90.84
2019-05-25T02:14:28.989Z,90.63
2019-05-25T02:17:01.349Z,90.65
2019-05-25T02:19:33.537Z,90.47
2019-05-25T02:22:07.071Z,90.64
2019-05-25T02:24:39.334Z,91.02
2019-05-25T02:27:15.519Z,90.78
2019-05-25T02:29:47.929Z,91.04
2019-05-25T02:32:20.320Z,90.72
2019-05-25T02:34:52.597Z,91.84
2019-05-25T02:37:24.930Z,92.11
2019-05-25T02:39:57.241Z,91.53
2019-05-25T02:42:29.416Z,92.49
2019-05-25T02:45:01.664Z,92.92
2019-05-25T02:47:34.923Z,92.12
2019-05-25T02:50:08.553Z,91.95
2019-05-25T02:52:40.851Z,91.51
2019-05-25T02:55:14.344Z,91.48
2019-05-25T02:57:46.684Z,90.22
2019-05-25T03:00:23.905Z,90.38
2019-05-25T03:02:56.165Z,90.21
2019-05-25T03:05:29.450Z,90.31
2019-05-25T03:08:03.412Z,90.09
2019-05-25T03:10:36.714Z,89.94
2019-05-25T03:13:08.984Z,88.99
2019-05-25T03:15:41.344Z,89.40
2019-05-25T03:18:15.277Z,88.80
2019-05-25T03:20:51.968Z,88.83
2019-05-25T03:23:24.237Z,88.83
2019-05-25T03:25:56.549Z,89.24
2019-05-25T03:28:29.875Z,88.12
2019-05-25T03:31:02.206Z,87.51
2019-05-25T03:33:34.606Z,87.42
2019-05-25T03:36:06.985Z,87.44
2019-05-25T03:38:39.245Z,86.30
2019-05-25T03:41:12.511Z,85.79
2019-05-25T03:43:44.833Z,85.27
2019-05-25T03:46:17.136Z,86.04
2019-05-25T03:48:51.408Z,86.01
2019-05-25T03:51:23.645Z,85.84
2019-05-25T03:53:55.939Z,85.57
2019-05-25T03:56:28.259Z,85.22
2019-05-25T03:59:00.715Z,83.91
2019-05-25T04:01:33.135Z,84.87
2019-05-25T04:04:05.576Z,83.16
2019-05-25T04:06:37.934Z,80.82
2019-05-25T04:09:10.257Z,82.33
2019-05-25T04:11:42.456Z,81.55
2019-05-25T04:14:14.780Z,80.96
2019-05-25T04:16:49.101Z,81.74
2019-05-25T04:19:21.443Z,80.72
2019-05-25T04:21:54.164Z,79.96
2019-05-25T04:24:26.430Z,78.37
2019-05-25T04:26:58.597Z,78.81
2019-05-25T04:29:30.840Z,79.18
2019-05-25T04:32:03.084Z,79.27
2019-05-25T04:34:35.405Z,80.28
2019-05-25T04:37:07.765Z,81.17
2019-05-25T04:39:40.102Z,81.12
2019-05-25T04:42:13.508Z,81.31
2019-05-25T04:44:46.048Z,83.15
2019-05-25T04:47:26.969Z,81.80
2019-05-25T04:49:53.331Z,80.39
2019-05-25T04:52:25.622Z,81.23
2019-05-25T04:55:01.607Z,80.85
2019-05-25T04:57:33.887Z,81.89
2019-05-25T05:00:09.425Z,82.30
2019-05-25T05:02:42.079Z,82.11
2019-05-25T05:05:14.453Z,81.55
2019-05-25T05:07:46.837Z,80.13
2019-05-25T05:10:19.113Z,80.76
2019-05-25T05:12:51.483Z,80.01
2019-05-25T05:15:24.725Z,80.68
2019-05-25T05:17:57.126Z,79.92
2019-05-25T05:20:31.315Z,79.96
2019-05-25T05:23:03.628Z,80.53
2019-05-25T05:25:35.913Z,80.79
2019-05-25T05:28:09.433Z,80.44
2019-05-25T05:30:45.218Z,80.35
2019-05-25T05:33:18.833Z,80.01
2019-05-25T05:35:53.099Z,79.57
2019-05-25T05:38:27.357Z,79.68
2019-05-25T05:41:00.436Z,79.60
2019-05-25T05:43:33.340Z,79.81
2019-05-25T05:46:08.019Z,80.06
2019-05-25T05:48:40.812Z,80.07
2019-05-25T05:51:16.280Z,79.40
2019-05-25T05:53:51.247Z,79.06
2019-05-25T05:56:24.583Z,77.14
2019-05-25T05:58:56.870Z,76.07
2019-05-25T06:01:30.182Z,76.45
2019-05-25T06:04:06.181Z,74.39
2019-05-25T06:06:40.428Z,72.71
2019-05-25T06:09:12.668Z,67.95
2019-05-25T06:11:45.007Z,69.61
2019-05-25T06:14:17.212Z,68.81
2019-05-25T06:16:52.717Z,70.69
2019-05-25T06:19:25.052Z,73.06
2019-05-25T06:21:57.334Z,73.36
2019-05-25T06:24:35.598Z,70.87
2019-05-25T06:27:07.904Z,69.72
2019-05-25T06:29:40.225Z,63.33
2019-05-25T06:32:13.918Z,60.70
2019-05-25T06:34:47.686Z,58.21
2019-05-25T06:37:20.077Z,55.98
2019-05-25T06:39:52.361Z,53.79
2019-05-25T06:42:24.489Z,51.48
2019-05-25T06:44:56.882Z,49.34
2019-05-25T06:47:29.126Z,50.72
2019-05-25T06:50:07.739Z,49.20
2019-05-25T06:52:39.926Z,50.89
2019-05-25T06:55:13.531Z,54.51
2019-05-25T06:57:45.869Z,54.59
2019-05-25T07:00:18.745Z,58.85
2019-05-25T07:02:51.288Z,60.33
2019-05-25T07:05:23.532Z,61.62
2019-05-25T07:07:56.821Z,58.46
2019-05-25T07:10:29.197Z,54.13
2019-05-25T07:13:03.277Z,52.84
2019-05-25T07:15:34.958Z,51.63
2019-05-25T07:18:07.208Z,47.46
2019-05-25T07:20:40.656Z,48.15
2019-05-25T07:23:13.114Z,47.89
2019-05-25T07:25:49.776Z,48.38
2019-05-25T07:28:23.060Z,48.50
2019-05-25T07:30:56.530Z,50.03
2019-05-25T07:33:28.905Z,51.52
2019-05-25T07:36:01.322Z,51.34
2019-05-25T07:38:34.641Z,51.13
2019-05-25T07:41:07.018Z,48.52
2019-05-25T07:43:39.753Z,48.74
2019-05-25T07:46:16.877Z,48.18
2019-05-25T07:48:50.273Z,46.12
2019-05-25T07:51:22.042Z,45.31
2019-05-25T07:53:54.409Z,44.82
2019-05-25T07:56:26.973Z,46.17
2019-05-25T07:58:59.260Z,45.29
2019-05-25T08:01:31.499Z,45.45
2019-05-25T08:04:06.743Z,45.74
2019-05-25T08:06:39.136Z,46.64
2019-05-25T08:09:12.492Z,44.91
2019-05-25T08:11:44.790Z,44.62
2019-05-25T08:14:18.050Z,45.75
2019-05-25T08:16:51.460Z,46.44
2019-05-25T08:19:23.739Z,48.11
2019-05-25T08:21:56.132Z,47.26
2019-05-25T08:24:28.402Z,47.42
2019-05-25T08:27:02.825Z,52.71
2019-05-25T08:29:34.337Z,52.26
2019-05-25T08:32:06.376Z,51.55
2019-05-25T08:34:38.643Z,52.13
2019-05-25T08:37:11.147Z,52.46
2019-05-25T08:39:44.431Z,54.16
2019-05-25T08:42:16.695Z,53.03
2019-05-25T08:44:50.961Z,51.91
2019-05-25T08:47:23.286Z,54.03
2019-05-25T08:49:55.533Z,54.47
2019-05-25T08:52:29.006Z,53.19
2019-05-25T08:55:02.506Z,55.23
2019-05-25T08:57:34.945Z,54.92
2019-05-25T09:00:08.320Z,52.29
2019-05-25T09:02:40.690Z,51.07
2019-05-25T09:05:13.399Z,52.29
2019-05-25T09:07:45.667Z,53.78
2019-05-25T09:10:21.250Z,52.51
2019-05-25T09:12:53.898Z,53.30
2019-05-25T09:15:26.319Z,54.74
2019-05-25T09:17:58.608Z,55.91
2019-05-25T09:20:35.910Z,56.61
2019-05-25T09:23:08.197Z,56.67
2019-05-25T09:25:41.112Z,56.07
2019-05-25T09:28:13.435Z,57.54
2019-05-25T09:30:45.785Z,58.09
2019-05-25T09:33:18.099Z,57.10
2019-05-25T09:35:51.386Z,55.16
2019-05-25T09:38:24.820Z,54.45
2019-05-25T09:40:57.214Z,56.20
2019-05-25T09:43:29.525Z,55.97
2019-05-25T09:46:03.839Z,55.48
2019-05-25T09:48:38.269Z,54.72
2019-05-25T09:51:15.161Z,54.97
2019-05-25T09:53:44.111Z,56.04
2019-05-25T09:56:16.403Z,56.66
2019-05-25T09:58:48.745Z,54.92
2019-05-25T10:01:25.521Z,54.73
2019-05-25T10:03:59.180Z,55.96
2019-05-25T10:06:35.631Z,53.69
2019-05-25T10:09:11.468Z,55.57
2019-05-25T10:11:43.797Z,60.10
2019-05-25T10:14:19.156Z,62.15
2019-05-25T10:16:51.802Z,62.21
2019-05-25T10:19:24.111Z,60.07
2019-05-25T10:21:59.429Z,59.07
2019-05-25T10:24:31.925Z,60.42
2019-05-25T10:27:05.311Z,61.23
2019-05-25T10:29:40.539Z,61.31
2019-05-25T10:32:14.032Z,61.00
2019-05-25T10:34:47.294Z,64.37
2019-05-25T10:37:19.681Z,68.19
2019-05-25T10:39:55.030Z,69.56
2019-05-25T10:42:30.331Z,71.81
2019-05-25T10:45:05.268Z,76.23
2019-05-25T10:47:37.636Z,79.54
2019-05-25T10:50:11.430Z,80.50
2019-05-25T10:52:43.802Z,81.82
2019-05-25T10:55:16.627Z,82.56
2019-05-25T10:57:48.942Z,82.89
2019-05-25T11:00:21.750Z,83.46
2019-05-25T11:02:55.164Z,83.58
2019-05-25T11:05:27.556Z,84.46
2019-05-25T11:08:01.003Z,82.96
2019-05-25T11:10:33.263Z,82.97
2019-05-25T11:13:05.690Z,81.43
2019-05-25T11:15:41.876Z,78.58
2019-05-25T11:18:15.066Z,78.18
2019-05-25T11:20:47.397Z,78.30
2019-05-25T11:23:22.200Z,78.84
2019-05-25T11:25:55.371Z,78.19
2019-05-25T11:28:27.627Z,76.45
2019-05-25T11:30:59.951Z,76.20
2019-05-25T11:33:32.320Z,76.68
2019-05-25T11:36:08.560Z,73.87
2019-05-25T11:38:40.866Z,75.14
2019-05-25T11:41:14.241Z,74.71
2019-05-25T11:43:48.606Z,73.64
2019-05-25T11:46:20.883Z,70.92
2019-05-25T11:48:56.831Z,69.44
2019-05-25T11:51:29.075Z,74.30
2019-05-25T11:54:05.510Z,73.20
2019-05-25T11:56:38.744Z,75.55
2019-05-25T11:59:14.345Z,71.55
2019-05-25T12:01:48.700Z,72.82
2019-05-25T12:04:22.070Z,72.18
2019-05-25T12:07:43.717Z,73.24
2019-05-25T12:09:58.051Z,75.74
2019-05-25T12:12:33.239Z,75.79
2019-05-25T12:15:08.202Z,75.86
2019-05-25T12:17:49.346Z,76.24
2019-05-25T12:20:26.349Z,76.66
2019-05-25T12:22:59.938Z,76.82
2019-05-25T12:25:32.332Z,76.26
2019-05-25T12:28:06.391Z,75.81
2019-05-25T12:30:41.304Z,77.66
2019-05-25T14:22:12.112Z,47.10
2019-05-25T14:25:38.352Z,50.66
2019-05-25T14:34:08.542Z,47.86
2019-05-25T14:36:48.237Z,46.02
2019-05-25T14:39:20.808Z,45.92
2019-05-25T14:41:55.512Z,47.10
2019-05-25T14:44:27.223Z,47.46
2019-05-25T14:46:59.588Z,50.61
2019-05-25T14:49:34.291Z,50.49
2019-05-25T14:52:10.927Z,52.90
2019-05-25T14:54:43.211Z,54.48
2019-05-25T14:57:35.983Z,54.19
2019-05-25T15:00:23.631Z,50.85
2019-05-25T15:03:14.335Z,50.44
2019-05-25T15:06:07.022Z,50.82
2019-05-25T15:08:42.933Z,49.67
2019-05-25T15:11:17.331Z,51.57
2019-05-25T15:13:49.326Z,52.39
2019-05-25T15:16:21.533Z,51.65
2019-05-25T15:18:53.729Z,52.90
2019-05-25T15:21:27.086Z,53.89
2019-05-25T15:23:59.301Z,54.49
2019-05-25T15:26:31.598Z,55.09
2019-05-25T15:29:04.916Z,54.22
2019-05-25T15:31:37.059Z,54.42
2019-05-25T15:34:09.406Z,57.21
2019-05-25T15:36:42.566Z,60.12
2019-05-25T15:39:15.771Z,61.65
2019-05-25T15:41:49.165Z,63.28
2019-05-25T15:44:23.296Z,64.40
2019-05-25T15:46:56.511Z,64.95
2019-05-25T15:49:33.218Z,65.96
2019-05-25T15:52:02.555Z,66.35
2019-05-25T15:54:34.727Z,67.53
2019-05-25T15:57:06.955Z,67.62
2019-05-25T15:59:40.324Z,67.97
2019-05-25T16:02:13.532Z,68.29
2019-05-25T16:04:45.784Z,69.25
2019-05-25T16:07:18.150Z,71.54
2019-05-25T16:09:50.391Z,71.56
2019-05-25T16:12:22.556Z,71.30
2019-05-25T16:14:54.764Z,70.47
2019-05-25T16:17:26.896Z,69.82
2019-05-25T16:20:00.754Z,69.83
2019-05-25T16:22:33.276Z,70.55
2019-05-25T16:25:09.645Z,70.76
2019-05-25T16:27:41.765Z,70.98
2019-05-25T16:30:14.936Z,71.50
2019-05-25T16:33:11.006Z,71.38
2019-05-25T16:35:21.185Z,70.24
2019-05-25T16:37:53.579Z,69.95
2019-05-25T16:40:26.111Z,69.90
2019-05-25T16:42:58.295Z,69.85
2019-05-25T16:45:34.116Z,70.18
2019-05-25T16:48:06.280Z,70.42
2019-05-25T16:50:38.553Z,70.68
2019-05-25T16:53:10.800Z,71.16
2019-05-25T16:55:44.904Z,71.62
2019-05-25T16:58:19.783Z,72.01
2019-05-25T17:00:56.135Z,72.02
2019-05-25T17:03:29.465Z,71.96
2019-05-25T17:06:02.948Z,72.30
2019-05-25T17:08:35.521Z,72.85
2019-05-25T17:11:07.698Z,72.96
2019-05-25T17:13:40.841Z,72.71
2019-05-25T17:16:13.141Z,73.14
2019-05-25T17:18:45.282Z,73.44
2019-05-25T17:21:18.448Z,73.71
2019-05-25T17:23:51.516Z,73.37
2019-05-25T17:26:23.587Z,73.75
2019-05-25T17:28:55.816Z,76.29
2019-05-25T17:31:27.915Z,74.30
2019-05-25T17:34:01.113Z,74.47
2019-05-25T17:36:34.224Z,74.63
2019-05-25T17:39:08.525Z,74.94
2019-05-25T17:41:40.713Z,75.16
2019-05-25T17:44:12.897Z,75.38
2019-05-25T17:46:46.265Z,75.63
2019-05-25T17:49:19.448Z,75.76
2019-05-25T17:51:51.670Z,76.33
2019-05-25T17:54:24.976Z,76.74
2019-05-25T17:56:57.287Z,77.56
2019-05-25T17:59:29.587Z,77.04
2019-05-25T18:02:02.876Z,77.73
2019-05-25T18:04:35.170Z,77.89
2019-05-25T18:07:09.759Z,78.01
2019-05-25T18:09:45.843Z,79.50
2019-05-25T18:12:19.369Z,79.00
2019-05-25T18:14:51.682Z,78.67
2019-05-25T18:17:24.122Z,78.52
2019-05-25T18:19:56.455Z,79.30
2019-05-25T18:22:29.133Z,79.35
2019-05-25T18:25:01.549Z,79.50
2019-05-25T18:27:33.980Z,79.86
2019-05-25T18:30:09.315Z,79.93
2019-05-25T18:32:44.763Z,80.33
2019-05-25T18:35:17.099Z,80.66
2019-05-25T18:37:49.444Z,81.32
2019-05-25T18:40:22.022Z,82.78
2019-05-25T18:42:54.281Z,83.11
2019-05-25T18:45:26.722Z,83.04
2019-05-25T18:47:59.089Z,83.51
2019-05-25T18:50:31.579Z,83.17
2019-05-25T18:53:04.399Z,83.02
2019-05-25T18:55:38.868Z,83.67
2019-05-25T18:58:12.156Z,82.93
2019-05-25T19:00:44.449Z,82.22
2019-05-25T19:03:16.876Z,82.75
2019-05-25T19:05:49.171Z,82.60
2019-05-25T19:08:21.605Z,83.84
2019-05-25T19:10:56.025Z,83.95
2019-05-25T19:13:28.353Z,84.57
2019-05-25T19:16:00.659Z,84.96
2019-05-25T19:18:33.042Z,84.89
2019-05-25T19:21:05.366Z,85.61
2019-05-25T19:23:37.895Z,85.48
2019-05-25T19:26:10.217Z,86.25
2019-05-25T19:28:43.453Z,85.49
2019-05-25T19:31:15.820Z,85.14
2019-05-25T19:33:48.186Z,85.28
2019-05-25T19:36:22.454Z,84.89
2019-05-25T19:38:54.868Z,85.17
2019-05-25T19:41:27.412Z,83.21
2019-05-25T19:44:00.747Z,82.42
2019-05-25T19:46:33.033Z,82.03
2019-05-25T19:49:05.293Z,81.75
2019-05-25T19:51:37.642Z,82.11
2019-05-25T19:54:10.015Z,83.00
2019-05-25T19:56:42.346Z,81.87
2019-05-25T19:59:14.780Z,82.27
2019-05-25T20:01:47.096Z,82.38
2019-05-25T20:04:20.352Z,81.67
2019-05-25T20:06:52.792Z,82.95
2019-05-25T20:09:25.075Z,82.71
2019-05-25T20:11:57.342Z,83.32
2019-05-25T20:14:29.717Z,83.54
2019-05-25T20:17:02.115Z,83.04
2019-05-25T20:19:34.515Z,82.48
2019-05-25T20:22:09.223Z,82.24
2019-05-25T20:24:40.991Z,82.14
2019-05-25T20:27:13.138Z,82.52
2019-05-25T20:29:45.498Z,81.49
2019-05-25T20:32:17.794Z,81.69
2019-05-25T20:34:50.145Z,82.21
2019-05-25T20:37:23.456Z,81.82
2019-05-25T20:39:56.798Z,82.48
2019-05-25T20:42:29.171Z,82.96
2019-05-25T20:45:01.423Z,82.72
2019-05-25T20:47:39.024Z,82.89
2019-05-25T20:50:11.637Z,83.33
2019-05-25T20:52:44.943Z,83.62
2019-05-25T20:55:17.241Z,82.94
2019-05-25T20:57:49.466Z,83.76
2019-05-25T21:00:24.123Z,83.42
2019-05-25T21:03:06.010Z,83.54
2019-05-25T21:05:46.970Z,84.07
2019-05-25T21:08:05.796Z,84.06
2019-05-25T21:10:46.361Z,83.49
2019-05-25T21:13:20.259Z,83.81
2019-05-25T21:15:52.740Z,83.87
2019-05-25T21:18:25.145Z,84.33
2019-05-25T21:20:57.428Z,83.97
2019-05-25T21:23:29.626Z,84.02
2019-05-25T21:26:03.866Z,84.21
2019-05-25T21:28:37.115Z,84.45
2019-05-25T21:31:09.315Z,84.59
2019-05-25T21:33:41.557Z,84.92
2019-05-25T21:36:14.005Z,84.79
2019-05-25T21:38:47.231Z,84.93
2019-05-25T21:41:19.656Z,84.37
2019-05-25T21:43:52.927Z,84.56
2019-05-25T21:46:26.179Z,84.51
2019-05-25T21:48:58.617Z,84.22
2019-05-25T21:51:31.915Z,84.91
2019-05-25T21:54:04.310Z,85.40
2019-05-25T21:56:37.745Z,85.31
2019-05-25T21:59:10.072Z,85.25
2019-05-25T22:01:43.354Z,85.56
2019-05-25T22:04:15.624Z,85.17
2019-05-25T22:06:48.012Z,85.52
2019-05-25T22:09:21.421Z,84.58
2019-05-25T22:11:54.820Z,84.21
2019-05-25T22:14:27.093Z,83.82
2019-05-25T22:16:59.436Z,83.78
2019-05-25T22:19:31.704Z,83.80
2019-05-25T22:22:04.123Z,84.95
2019-05-25T22:24:36.411Z,84.18
2019-05-25T22:27:08.834Z,84.24
2019-05-25T22:29:41.097Z,84.25
2019-05-25T22:32:13.329Z,85.02
2019-05-25T22:34:46.605Z,84.73
2019-05-25T22:37:18.964Z,84.88
2019-05-25T22:39:52.273Z,85.26
2019-05-25T22:42:24.584Z,85.77
2019-05-25T22:44:56.775Z,86.07
2019-05-25T22:47:30.081Z,85.75
2019-05-25T22:50:02.422Z,85.93
2019-05-25T22:52:34.756Z,86.32
2019-05-25T22:55:07.901Z,86.58
2019-05-25T22:57:40.143Z,86.86
2019-05-25T23:00:13.424Z,87.21
2019-05-25T23:02:45.729Z,87.33
2019-05-25T23:05:18.131Z,87.63
2019-05-25T23:07:50.436Z,87.86
2019-05-25T23:10:23.469Z,88.32
2019-05-25T23:12:55.768Z,88.56
2019-05-25T23:15:29.135Z,89.24
2019-05-25T23:18:01.447Z,89.39
2019-05-25T23:20:36.509Z,89.33
2019-05-25T23:23:07.895Z,89.17
2019-05-25T23:25:40.221Z,89.49
2019-05-25T23:28:12.565Z,89.46
2019-05-25T23:30:46.410Z,89.70
2019-05-25T23:33:18.873Z,90.05
2019-05-25T23:35:51.164Z,90.06
2019-05-25T23:38:23.590Z,90.31
2019-05-25T23:40:58.259Z,90.43
2019-05-25T23:43:31.935Z,90.54
2019-05-25T23:46:05.524Z,90.70
2019-05-25T23:48:37.962Z,91.02
2019-05-25T23:51:11.344Z,91.22
2019-05-25T23:53:43.668Z,91.42
2019-05-25T23:56:18.002Z,91.42
2019-05-25T23:58:50.431Z,91.24
